createdAt,value
2018-07-16T00:02:17.975Z,4.10
2018-07-16T00:04:47.698Z,3.57
2018-07-16T00:07:17.278Z,3.70
2018-07-16T00:09:48.070Z,3.57
2018-07-16T00:15:42.101Z,3.93
2018-07-16T00:18:18.687Z,3.57
2018-07-16T00:21:24.628Z,3.60
2018-07-16T00:24:02.930Z,3.60
2018-07-16T00:26:37.511Z,3.53
2018-07-16T00:29:09.030Z,3.47
2018-07-16T00:31:39.332Z,3.57
2018-07-16T00:34:09.213Z,3.43
2018-07-16T00:36:38.783Z,3.50
2018-07-16T00:39:08.469Z,3.90
2018-07-16T00:41:38.599Z,3.57
2018-07-16T00:44:08.368Z,3.43
2018-07-16T00:46:38.501Z,3.67
2018-07-16T00:49:08.245Z,4.00
2018-07-16T00:51:38.127Z,3.70
2018-07-16T00:54:07.993Z,4.00
2018-07-16T00:56:37.814Z,4.53
2018-07-16T00:59:07.746Z,3.77
2018-07-16T01:01:38.838Z,4.17
2018-07-16T01:04:08.463Z,3.67
2018-07-16T01:06:38.352Z,3.93
2018-07-16T01:09:08.313Z,4.00
2018-07-16T01:11:39.534Z,4.23
2018-07-16T01:14:09.066Z,4.17
2018-07-16T01:17:40.155Z,4.10
2018-07-16T01:23:10.793Z,3.93
2018-07-16T01:25:40.767Z,5.00
2018-07-16T01:28:10.580Z,4.03
2018-07-16T01:30:40.291Z,4.33
2018-07-16T01:33:10.476Z,4.17
2018-07-16T01:35:44.032Z,4.70
2018-07-16T01:38:14.179Z,4.87
2018-07-16T01:40:44.032Z,4.87
2018-07-16T01:48:26.459Z,4.73
2018-07-16T01:50:56.236Z,5.10
2018-07-16T01:53:27.253Z,5.57
2018-07-16T01:55:56.820Z,5.73
2018-07-16T01:58:26.341Z,5.77
2018-07-16T02:03:37.346Z,5.67
2018-07-16T02:06:06.949Z,5.87
2018-07-16T02:08:37.198Z,5.57
2018-07-16T02:11:07.084Z,6.17
2018-07-16T02:13:36.782Z,6.00
2018-07-16T02:16:06.314Z,6.43
2018-07-16T02:21:43.773Z,6.53
2018-07-16T02:24:13.276Z,6.07
2018-07-16T02:26:42.755Z,6.07
2018-07-16T02:29:14.502Z,6.63
2018-07-16T02:31:47.204Z,6.47
2018-07-16T02:34:16.830Z,6.33
2018-07-16T02:36:46.775Z,6.53
2018-07-16T02:39:16.770Z,6.50
2018-07-16T02:41:46.249Z,6.50
2018-07-16T02:44:15.878Z,6.23
2018-07-16T02:46:46.721Z,5.67
2018-07-16T02:49:16.392Z,5.70
2018-07-16T02:51:45.939Z,6.53
2018-07-16T02:54:16.830Z,5.90
2018-07-16T02:57:20.101Z,6.33
2018-07-16T02:59:50.032Z,6.47
2018-07-16T03:02:21.461Z,6.27
2018-07-16T03:05:19.890Z,6.43
2018-07-16T03:07:50.279Z,6.87
2018-07-16T03:10:53.868Z,6.27
2018-07-16T03:13:23.872Z,6.30
2018-07-16T03:15:53.468Z,6.10
2018-07-16T03:18:24.496Z,6.90
2018-07-16T03:20:54.082Z,6.17
2018-07-16T03:23:23.663Z,6.50
2018-07-16T03:26:00.267Z,6.07
2018-07-16T03:28:29.911Z,6.07
2018-07-16T03:30:59.653Z,5.93
2018-07-16T03:33:29.188Z,6.17
2018-07-16T03:36:00.034Z,6.00
2018-07-16T03:38:29.865Z,6.47
2018-07-16T03:40:59.372Z,6.40
2018-07-16T03:43:28.836Z,6.53
2018-07-16T03:46:09.979Z,6.43
2018-07-16T03:48:39.810Z,6.47
2018-07-16T03:51:09.372Z,6.27
2018-07-16T03:53:42.283Z,6.60
2018-07-16T03:56:12.059Z,7.30
2018-07-16T03:58:41.912Z,6.80
2018-07-16T04:01:12.872Z,7.47
2018-07-16T04:06:25.486Z,6.83
2018-07-16T04:11:51.323Z,6.97
2018-07-16T04:14:22.191Z,7.50
2018-07-16T04:17:47.361Z,7.03
2018-07-16T04:20:18.479Z,8.07
2018-07-16T04:22:48.788Z,7.83
2018-07-16T04:25:21.150Z,7.93
2018-07-16T04:27:56.101Z,8.03
2018-07-16T04:30:25.534Z,7.87
2018-07-16T04:32:57.459Z,7.63
2018-07-16T04:35:27.245Z,7.37
2018-07-16T04:37:56.769Z,7.33
2018-07-16T04:43:22.211Z,9.50
2018-07-16T04:48:20.690Z,10.87
2018-07-16T04:50:50.366Z,8.10
2018-07-16T04:53:20.122Z,7.50
2018-07-16T04:59:32.266Z,7.53
2018-07-16T05:02:21.956Z,7.33
2018-07-16T05:04:51.909Z,7.40
2018-07-16T05:07:21.667Z,7.60
2018-07-16T05:09:51.854Z,8.10
2018-07-16T05:12:21.943Z,6.93
2018-07-16T05:14:56.402Z,7.23
2018-07-16T05:17:27.265Z,7.43
2018-07-16T05:19:57.115Z,6.60
2018-07-16T05:22:26.832Z,6.40
2018-07-16T05:24:58.224Z,6.60
2018-07-16T05:27:28.071Z,6.30
2018-07-16T05:29:58.625Z,6.70
2018-07-16T05:32:36.506Z,7.10
2018-07-16T05:35:06.090Z,6.20
2018-07-16T05:37:39.599Z,6.50
2018-07-16T05:40:10.606Z,6.37
2018-07-16T05:42:40.221Z,6.17
2018-07-16T05:45:09.681Z,6.13
2018-07-16T05:47:39.543Z,5.77
2018-07-16T05:50:09.211Z,5.90
2018-07-16T05:52:38.753Z,5.70
2018-07-16T05:55:08.293Z,5.57
2018-07-16T05:57:48.354Z,6.00
2018-07-16T06:00:17.878Z,5.60
2018-07-16T06:02:47.776Z,6.17
2018-07-16T06:05:18.629Z,5.97
2018-07-16T06:07:48.489Z,5.60
2018-07-16T06:10:18.133Z,5.40
2018-07-16T06:12:53.448Z,7.20
2018-07-16T06:15:24.959Z,5.77
2018-07-16T06:17:58.694Z,6.53
2018-07-16T06:20:28.690Z,6.97
2018-07-16T06:22:59.540Z,7.50
2018-07-16T06:25:29.094Z,6.57
2018-07-16T06:27:58.698Z,6.40
2018-07-16T06:30:28.511Z,5.57
2018-07-16T06:32:58.626Z,6.00
2018-07-16T06:35:38.357Z,5.43
2018-07-16T06:38:11.345Z,5.93
2018-07-16T06:40:41.215Z,5.93
2018-07-16T06:43:10.935Z,4.97
2018-07-16T06:45:41.471Z,6.50
2018-07-16T06:48:16.169Z,5.43
2018-07-16T06:50:46.198Z,5.80
2018-07-16T06:53:17.085Z,7.33
2018-07-16T06:55:48.515Z,6.57
2018-07-16T06:58:18.728Z,5.80
2018-07-16T07:00:48.799Z,5.13
2018-07-16T07:03:18.670Z,4.90
2018-07-16T07:05:49.412Z,4.80
2018-07-16T07:08:20.285Z,4.80
2018-07-16T07:10:52.491Z,4.40
2018-07-16T07:13:33.149Z,4.47
2018-07-16T07:16:08.342Z,4.23
2018-07-16T07:18:38.055Z,4.60
2018-07-16T07:21:07.941Z,4.60
2018-07-16T07:23:37.651Z,4.60
2018-07-16T07:26:07.125Z,4.20
2018-07-16T07:28:36.581Z,4.57
2018-07-16T07:31:06.513Z,4.40
2018-07-16T07:33:36.148Z,4.00
2018-07-16T07:36:05.908Z,4.73
2018-07-16T07:38:36.591Z,4.40
2018-07-16T07:42:45.582Z,4.13
2018-07-16T07:45:15.711Z,4.53
2018-07-16T07:47:45.255Z,3.77
2018-07-16T07:50:14.586Z,4.00
2018-07-16T07:52:44.433Z,3.33
2018-07-16T07:55:14.313Z,3.97
2018-07-16T07:57:43.518Z,5.90
2018-07-16T08:00:14.590Z,4.47
2018-07-16T08:02:45.146Z,4.40
2018-07-16T08:05:14.854Z,3.77
2018-07-16T08:07:44.565Z,4.57
2018-07-16T08:10:14.810Z,4.00
2018-07-16T08:12:44.461Z,4.07
2018-07-16T08:15:16.583Z,3.80
2018-07-16T08:17:46.033Z,4.60
2018-07-16T08:20:15.522Z,3.60
2018-07-16T08:22:45.353Z,3.87
2018-07-16T08:25:14.820Z,3.90
2018-07-16T08:27:44.606Z,4.17
2018-07-16T08:30:19.497Z,3.83
2018-07-16T08:32:49.145Z,4.20
2018-07-16T08:35:18.702Z,4.07
2018-07-16T08:37:48.822Z,3.90
2018-07-16T08:40:18.683Z,3.60
2018-07-16T08:45:42.106Z,4.07
2018-07-16T08:48:11.924Z,3.53
2018-07-16T08:50:41.470Z,3.50
2018-07-16T08:53:14.576Z,3.70
2018-07-16T08:55:44.061Z,3.53
2018-07-16T08:58:14.067Z,3.30
2018-07-16T09:00:45.921Z,3.10
2018-07-16T09:03:15.609Z,3.60
2018-07-16T09:05:45.206Z,3.70
2018-07-16T09:08:15.810Z,3.60
2018-07-16T09:10:45.408Z,3.77
2018-07-16T09:13:14.990Z,3.73
2018-07-16T09:15:46.665Z,3.33
2018-07-16T09:18:16.074Z,3.43
2018-07-16T09:20:45.835Z,3.63
2018-07-16T09:23:15.780Z,4.10
2018-07-16T09:25:45.262Z,3.50
2018-07-16T09:28:14.727Z,3.70
2018-07-16T09:30:45.627Z,4.33
2018-07-16T09:33:15.280Z,3.60
2018-07-16T09:35:45.344Z,3.87
2018-07-16T09:38:15.259Z,3.80
2018-07-16T09:40:44.845Z,3.90
2018-07-16T09:43:14.314Z,3.93
2018-07-16T09:45:44.116Z,3.47
2018-07-16T09:48:13.923Z,3.43
2018-07-16T09:50:43.398Z,3.70
2018-07-16T09:53:14.097Z,3.97
2018-07-16T09:55:43.736Z,3.40
2018-07-16T09:58:13.215Z,3.17
2018-07-16T10:00:48.236Z,3.20
2018-07-16T10:03:21.584Z,3.33
2018-07-16T10:05:51.078Z,2.80
2018-07-16T10:08:22.229Z,3.20
2018-07-16T10:13:37.069Z,3.10
2018-07-16T10:21:50.711Z,3.00
2018-07-16T10:24:22.964Z,3.20
2018-07-16T10:29:58.626Z,3.10
2018-07-16T10:32:36.667Z,3.70
2018-07-16T10:35:16.901Z,2.87
2018-07-16T10:43:49.059Z,3.00
2018-07-16T10:49:15.546Z,3.40
2018-07-16T10:52:06.820Z,3.33
2018-07-16T10:54:40.310Z,2.77
2018-07-16T10:57:11.660Z,3.33
2018-07-16T10:59:43.733Z,3.40
2018-07-16T11:02:16.180Z,3.10
2018-07-16T11:04:46.836Z,3.20
2018-07-16T11:10:11.423Z,3.10
2018-07-16T11:12:41.641Z,3.27
2018-07-16T11:21:15.284Z,3.27
2018-07-16T11:23:46.324Z,3.07
2018-07-16T11:26:16.156Z,3.03
2018-07-16T11:30:11.933Z,2.70
2018-07-16T11:32:41.777Z,2.80
2018-07-16T11:38:50.777Z,2.80
2018-07-16T11:41:20.406Z,2.63
2018-07-16T11:44:02.157Z,2.70
2018-07-16T11:46:32.158Z,3.00
2018-07-16T11:49:01.842Z,2.63
2018-07-16T11:51:32.558Z,2.60
2018-07-16T11:54:26.152Z,2.67
2018-07-16T11:56:56.564Z,2.70
2018-07-16T11:59:27.122Z,2.57
2018-07-16T12:01:58.625Z,2.87
2018-07-16T12:04:28.260Z,2.63
2018-07-16T12:06:59.149Z,2.60
2018-07-16T12:09:29.259Z,2.80
2018-07-16T12:11:59.350Z,2.80
2018-07-16T12:14:29.331Z,2.77
2018-07-16T12:16:59.501Z,2.43
2018-07-16T12:19:32.465Z,2.50
2018-07-16T12:22:02.126Z,3.00
2018-07-16T12:24:32.016Z,3.20
2018-07-16T12:27:01.739Z,2.10
2018-07-16T12:29:31.806Z,2.77
2018-07-16T12:32:01.566Z,2.30
2018-07-16T12:34:31.597Z,2.50
2018-07-16T12:37:02.047Z,2.30
2018-07-16T12:39:32.468Z,2.20
2018-07-16T12:42:02.159Z,2.10
2018-07-16T12:47:27.415Z,2.37
2018-07-16T12:49:58.292Z,2.20
2018-07-16T12:52:28.205Z,2.47
2018-07-16T12:54:58.381Z,2.20
2018-07-16T12:57:28.490Z,2.60
2018-07-16T13:04:01.503Z,2.23
2018-07-16T13:08:52.567Z,2.20
2018-07-16T13:17:34.902Z,2.60
2018-07-16T13:20:05.423Z,2.30
2018-07-16T13:22:35.125Z,2.40
2018-07-16T13:25:04.740Z,2.63
2018-07-16T13:27:34.517Z,1.90
2018-07-16T13:30:04.403Z,2.10
2018-07-16T13:32:34.626Z,2.00
2018-07-16T13:35:04.366Z,2.27
2018-07-16T13:37:34.705Z,2.40
2018-07-16T13:46:10.273Z,2.33
2018-07-16T13:48:40.247Z,2.40
2018-07-16T13:56:56.760Z,2.50
2018-07-16T13:59:42.078Z,2.30
2018-07-16T14:02:58.066Z,2.50
2018-07-16T14:05:27.600Z,2.27
2018-07-16T14:07:57.288Z,2.00
2018-07-16T14:10:29.303Z,2.23
2018-07-16T14:12:58.934Z,2.50
2018-07-16T14:15:58.782Z,2.90
2018-07-16T14:18:48.895Z,2.60
2018-07-16T14:21:18.852Z,2.53
2018-07-16T14:26:43.403Z,2.73
2018-07-16T14:29:19.197Z,2.50
2018-07-16T14:32:09.615Z,3.20
2018-07-16T14:34:50.934Z,2.80
2018-07-16T14:40:14.707Z,2.60
2018-07-16T14:42:44.279Z,2.57
2018-07-16T14:45:13.997Z,2.70
2018-07-16T14:51:09.546Z,2.20
2018-07-16T14:53:39.258Z,2.50
2018-07-16T14:56:09.680Z,2.40
2018-07-16T14:58:39.410Z,2.20
2018-07-16T15:01:09.181Z,2.73
2018-07-16T15:03:39.099Z,2.37
2018-07-16T15:06:25.801Z,2.73
2018-07-16T15:08:55.622Z,2.43
2018-07-16T15:11:26.534Z,2.60
2018-07-16T15:13:58.469Z,2.10
2018-07-16T15:16:28.246Z,2.47
2018-07-16T15:18:58.052Z,2.10
2018-07-16T15:25:07.933Z,2.90
2018-07-16T15:27:37.670Z,2.40
2018-07-16T15:30:17.085Z,2.50
2018-07-16T15:32:56.952Z,2.20
2018-07-16T15:35:31.671Z,2.67
2018-07-16T15:38:01.384Z,2.43
2018-07-16T15:40:31.136Z,2.37
2018-07-16T15:43:01.766Z,2.50
2018-07-16T15:45:33.825Z,2.40
2018-07-16T15:48:31.409Z,3.00
2018-07-16T15:51:01.525Z,2.90
2018-07-16T15:53:31.678Z,2.90
2018-07-16T15:56:01.295Z,2.60
2018-07-16T15:58:38.740Z,2.33
2018-07-16T16:01:09.957Z,2.50
2018-07-16T16:06:24.693Z,2.23
2018-07-16T16:08:55.169Z,2.73
2018-07-16T16:11:26.569Z,4.80
2018-07-16T16:14:07.023Z,2.80
2018-07-16T16:16:38.488Z,2.47
2018-07-16T16:21:59.981Z,2.50
2018-07-16T16:24:32.734Z,2.13
2018-07-16T16:27:07.361Z,2.63
2018-07-16T16:29:40.726Z,2.50
2018-07-16T16:32:12.809Z,2.60
2018-07-16T16:35:05.260Z,2.50
2018-07-16T16:37:35.926Z,2.87
2018-07-16T16:40:11.004Z,2.70
2018-07-16T16:42:44.138Z,3.00
2018-07-16T16:45:14.710Z,4.67
2018-07-16T16:47:46.075Z,2.50
2018-07-16T16:50:17.795Z,2.80
2018-07-16T16:55:44.210Z,2.83
2018-07-16T16:58:35.821Z,4.40
2018-07-16T17:01:27.743Z,3.03
2018-07-16T17:13:30.682Z,3.43
2018-07-16T17:16:18.541Z,3.80
2018-07-16T17:18:51.532Z,3.03
2018-07-16T17:21:22.125Z,2.70
2018-07-16T17:24:55.931Z,3.00
2018-07-16T17:27:36.185Z,2.70
2018-07-16T17:30:07.393Z,2.77
2018-07-16T17:32:49.695Z,2.67
2018-07-16T17:35:19.977Z,2.70
2018-07-16T17:37:50.238Z,2.77
2018-07-16T17:40:23.821Z,3.00
2018-07-16T17:45:48.742Z,3.10
2018-07-16T17:48:19.470Z,2.80
2018-07-16T17:50:49.320Z,3.00
2018-07-16T17:53:36.205Z,3.03
2018-07-16T17:56:06.382Z,3.30
2018-07-16T17:58:44.310Z,2.80
2018-07-16T18:01:14.623Z,3.30
2018-07-16T18:03:44.215Z,3.07
2018-07-16T18:06:14.281Z,3.60
2018-07-16T18:08:48.960Z,16.93
2018-07-16T18:11:18.820Z,10.37
2018-07-16T18:13:48.677Z,5.23
2018-07-16T18:16:20.466Z,3.53
2018-07-16T18:18:50.006Z,2.90
2018-07-16T18:21:23.812Z,3.00
2018-07-16T18:23:59.295Z,3.07
2018-07-16T18:26:29.684Z,4.20
2018-07-16T18:28:59.765Z,3.23
2018-07-16T18:31:29.580Z,2.80
2018-07-16T18:33:59.661Z,2.53
2018-07-16T18:36:29.104Z,2.60
2018-07-16T18:39:15.015Z,2.53
2018-07-16T18:52:23.976Z,2.63
2018-07-16T18:55:06.417Z,2.73
